sensor_id;sensor_type;location;lat;lon;timestamp;P1;durP1;ratioP1;P2;durP2;ratioP2
30472;SDS011;17263;48.160;11.452;2022-10-16T00:01:09;6.23;;;1.90;;
30472;SDS011;17263;48.160;11.452;2022-10-16T00:03:39;5.07;;;2.10;;
30472;SDS011;17263;48.160;11.452;2022-10-16T00:06:07;5.93;;;2.20;;
30472;SDS011;17263;48.160;11.452;2022-10-16T00:08:35;2.90;;;2.00;;
30472;SDS011;17263;48.160;11.452;2022-10-16T00:11:03;4.57;;;1.77;;
30472;SDS011;17263;48.160;11.452;2022-10-16T00:13:34;7.43;;;2.13;;
30472;SDS011;17263;48.160;11.452;2022-10-16T00:16:01;3.33;;;1.93;;
30472;SDS011;17263;48.160;11.452;2022-10-16T00:18:28;2.57;;;1.93;;
30472;SDS011;17263;48.160;11.452;2022-10-16T00:20:55;2.33;;;1.70;;
30472;SDS011;17263;48.160;11.452;2022-10-16T00:23:26;2.30;;;1.60;;
30472;SDS011;17263;48.160;11.452;2022-10-16T00:25:56;4.03;;;1.70;;
30472;SDS011;17263;48.160;11.452;2022-10-16T00:28:24;3.83;;;1.93;;
30472;SDS011;17263;48.160;11.452;2022-10-16T00:30:51;6.13;;;2.07;;
30472;SDS011;17263;48.160;11.452;2022-10-16T00:33:18;5.03;;;2.03;;
30472;SDS011;17263;48.160;11.452;2022-10-16T00:35:44;2.77;;;2.13;;
30472;SDS011;17263;48.160;11.452;2022-10-16T00:38:11;4.23;;;1.80;;
30472;SDS011;17263;48.160;11.452;2022-10-16T00:40:37;2.83;;;1.63;;
30472;SDS011;17263;48.160;11.452;2022-10-16T00:43:14;5.97;;;2.17;;
30472;SDS011;17263;48.160;11.452;2022-10-16T00:45:59;5.60;;;1.80;;
30472;SDS011;17263;48.160;11.452;2022-10-16T00:48:27;6.70;;;1.83;;
30472;SDS011;17263;48.160;11.452;2022-10-16T00:50:53;5.53;;;2.00;;
30472;SDS011;17263;48.160;11.452;2022-10-16T00:53:19;4.97;;;1.83;;
30472;SDS011;17263;48.160;11.452;2022-10-16T00:55:46;3.47;;;1.57;;
30472;SDS011;17263;48.160;11.452;2022-10-16T00:58:12;5.77;;;1.43;;
30472;SDS011;17263;48.160;11.452;2022-10-16T01:00:39;2.77;;;1.50;;
30472;SDS011;17263;48.160;11.452;2022-10-16T01:03:21;1.87;;;1.57;;
30472;SDS011;17263;48.160;11.452;2022-10-16T01:05:51;8.10;;;1.83;;
30472;SDS011;17263;48.160;11.452;2022-10-16T01:08:51;6.73;;;1.67;;
30472;SDS011;17263;48.160;11.452;2022-10-16T01:11:32;6.67;;;1.90;;
30472;SDS011;17263;48.160;11.452;2022-10-16T01:14:05;1.70;;;1.60;;
30472;SDS011;17263;48.160;11.452;2022-10-16T01:16:39;4.50;;;2.10;;
30472;SDS011;17263;48.160;11.452;2022-10-16T01:19:59;5.50;;;2.67;;
30472;SDS011;17263;48.160;11.452;2022-10-16T01:22:16;3.00;;;2.10;;
30472;SDS011;17263;48.160;11.452;2022-10-16T01:24:46;6.10;;;2.13;;
30472;SDS011;17263;48.160;11.452;2022-10-16T01:35:27;11.20;;;2.40;;
30472;SDS011;17263;48.160;11.452;2022-10-16T01:38:21;6.00;;;2.00;;
30472;SDS011;17263;48.160;11.452;2022-10-16T01:40:59;6.07;;;1.80;;
30472;SDS011;17263;48.160;11.452;2022-10-16T01:43:31;4.90;;;1.80;;
30472;SDS011;17263;48.160;11.452;2022-10-16T01:46:01;3.63;;;1.60;;
30472;SDS011;17263;48.160;11.452;2022-10-16T01:48:28;2.90;;;1.60;;
30472;SDS011;17263;48.160;11.452;2022-10-16T01:51:00;4.33;;;1.60;;
30472;SDS011;17263;48.160;11.452;2022-10-16T01:53:34;3.63;;;1.83;;
30472;SDS011;17263;48.160;11.452;2022-10-16T01:56:00;3.83;;;1.67;;
30472;SDS011;17263;48.160;11.452;2022-10-16T01:58:29;2.80;;;1.63;;
30472;SDS011;17263;48.160;11.452;2022-10-16T02:01:00;4.83;;;1.80;;
30472;SDS011;17263;48.160;11.452;2022-10-16T02:03:28;3.93;;;1.63;;
30472;SDS011;17263;48.160;11.452;2022-10-16T02:05:55;4.20;;;1.87;;
30472;SDS011;17263;48.160;11.452;2022-10-16T02:08:24;2.10;;;1.50;;
30472;SDS011;17263;48.160;11.452;2022-10-16T02:10:54;3.23;;;1.90;;
30472;SDS011;17263;48.160;11.452;2022-10-16T02:13:35;4.57;;;1.83;;
30472;SDS011;17263;48.160;11.452;2022-10-16T02:16:06;7.70;;;1.97;;
30472;SDS011;17263;48.160;11.452;2022-10-16T02:18:32;5.37;;;1.83;;
30472;SDS011;17263;48.160;11.452;2022-10-16T02:21:00;3.07;;;1.90;;
30472;SDS011;17263;48.160;11.452;2022-10-16T02:23:35;7.33;;;1.70;;
30472;SDS011;17263;48.160;11.452;2022-10-16T02:26:28;4.80;;;1.90;;
30472;SDS011;17263;48.160;11.452;2022-10-16T02:29:02;4.43;;;1.90;;
30472;SDS011;17263;48.160;11.452;2022-10-16T02:31:32;2.87;;;1.73;;
30472;SDS011;17263;48.160;11.452;2022-10-16T02:34:03;3.77;;;2.27;;
30472;SDS011;17263;48.160;11.452;2022-10-16T02:36:32;5.57;;;2.20;;
30472;SDS011;17263;48.160;11.452;2022-10-16T02:38:59;4.53;;;2.00;;
30472;SDS011;17263;48.160;11.452;2022-10-16T02:41:26;2.87;;;1.60;;
30472;SDS011;17263;48.160;11.452;2022-10-16T02:43:53;4.67;;;1.80;;
30472;SDS011;17263;48.160;11.452;2022-10-16T02:46:20;2.13;;;1.77;;
30472;SDS011;17263;48.160;11.452;2022-10-16T02:48:46;4.87;;;1.93;;
30472;SDS011;17263;48.160;11.452;2022-10-16T02:51:12;2.70;;;1.50;;
30472;SDS011;17263;48.160;11.452;2022-10-16T02:53:39;4.10;;;1.80;;
30472;SDS011;17263;48.160;11.452;2022-10-16T02:56:05;3.83;;;1.80;;
30472;SDS011;17263;48.160;11.452;2022-10-16T02:58:31;5.77;;;2.40;;
30472;SDS011;17263;48.160;11.452;2022-10-16T03:00:57;4.27;;;2.27;;
30472;SDS011;17263;48.160;11.452;2022-10-16T03:03:23;5.43;;;1.70;;
30472;SDS011;17263;48.160;11.452;2022-10-16T03:05:49;4.83;;;2.00;;
30472;SDS011;17263;48.160;11.452;2022-10-16T03:08:16;2.30;;;2.00;;
30472;SDS011;17263;48.160;11.452;2022-10-16T03:10:42;1.97;;;1.87;;
30472;SDS011;17263;48.160;11.452;2022-10-16T03:13:08;2.20;;;1.70;;
30472;SDS011;17263;48.160;11.452;2022-10-16T03:15:34;6.50;;;1.80;;
30472;SDS011;17263;48.160;11.452;2022-10-16T03:18:00;6.93;;;2.13;;
30472;SDS011;17263;48.160;11.452;2022-10-16T03:20:26;3.10;;;1.80;;
30472;SDS011;17263;48.160;11.452;2022-10-16T03:22:52;4.53;;;1.70;;
30472;SDS011;17263;48.160;11.452;2022-10-16T03:25:18;5.47;;;1.80;;
30472;SDS011;17263;48.160;11.452;2022-10-16T03:27:44;6.30;;;1.80;;
30472;SDS011;17263;48.160;11.452;2022-10-16T03:30:11;4.13;;;1.70;;
30472;SDS011;17263;48.160;11.452;2022-10-16T03:32:37;3.10;;;2.00;;
30472;SDS011;17263;48.160;11.452;2022-10-16T03:35:03;2.83;;;1.90;;
30472;SDS011;17263;48.160;11.452;2022-10-16T03:37:29;5.87;;;1.50;;
30472;SDS011;17263;48.160;11.452;2022-10-16T03:39:55;2.60;;;1.40;;
30472;SDS011;17263;48.160;11.452;2022-10-16T03:42:21;3.73;;;1.80;;
30472;SDS011;17263;48.160;11.452;2022-10-16T03:44:47;2.47;;;1.50;;
30472;SDS011;17263;48.160;11.452;2022-10-16T03:47:13;2.80;;;1.47;;
30472;SDS011;17263;48.160;11.452;2022-10-16T03:49:39;6.40;;;1.73;;
30472;SDS011;17263;48.160;11.452;2022-10-16T03:52:05;4.70;;;1.70;;
30472;SDS011;17263;48.160;11.452;2022-10-16T03:54:31;2.57;;;1.47;;
30472;SDS011;17263;48.160;11.452;2022-10-16T03:56:57;6.50;;;1.70;;
30472;SDS011;17263;48.160;11.452;2022-10-16T03:59:23;6.10;;;1.60;;
30472;SDS011;17263;48.160;11.452;2022-10-16T04:01:49;3.77;;;1.40;;
30472;SDS011;17263;48.160;11.452;2022-10-16T04:04:15;2.63;;;1.90;;
30472;SDS011;17263;48.160;11.452;2022-10-16T04:06:41;4.60;;;1.30;;
30472;SDS011;17263;48.160;11.452;2022-10-16T04:09:07;2.70;;;1.70;;
30472;SDS011;17263;48.160;11.452;2022-10-16T04:11:33;3.40;;;1.47;;
30472;SDS011;17263;48.160;11.452;2022-10-16T04:13:59;1.77;;;1.33;;
30472;SDS011;17263;48.160;11.452;2022-10-16T04:16:26;2.90;;;1.60;;
30472;SDS011;17263;48.160;11.452;2022-10-16T04:18:52;2.33;;;1.40;;
30472;SDS011;17263;48.160;11.452;2022-10-16T04:21:18;4.87;;;1.73;;
30472;SDS011;17263;48.160;11.452;2022-10-16T04:23:44;4.47;;;1.87;;
30472;SDS011;17263;48.160;11.452;2022-10-16T04:26:10;3.27;;;1.70;;
30472;SDS011;17263;48.160;11.452;2022-10-16T04:28:37;3.53;;;1.40;;
30472;SDS011;17263;48.160;11.452;2022-10-16T04:31:03;1.73;;;1.57;;
30472;SDS011;17263;48.160;11.452;2022-10-16T04:33:30;2.33;;;1.30;;
30472;SDS011;17263;48.160;11.452;2022-10-16T04:35:57;3.63;;;1.50;;
30472;SDS011;17263;48.160;11.452;2022-10-16T04:38:24;3.80;;;1.80;;
30472;SDS011;17263;48.160;11.452;2022-10-16T04:40:50;2.27;;;1.57;;
30472;SDS011;17263;48.160;11.452;2022-10-16T04:43:16;2.30;;;1.70;;
30472;SDS011;17263;48.160;11.452;2022-10-16T04:45:42;2.10;;;1.57;;
30472;SDS011;17263;48.160;11.452;2022-10-16T04:48:09;1.70;;;1.60;;
30472;SDS011;17263;48.160;11.452;2022-10-16T04:50:35;6.33;;;1.70;;
30472;SDS011;17263;48.160;11.452;2022-10-16T04:53:01;3.67;;;1.70;;
30472;SDS011;17263;48.160;11.452;2022-10-16T04:55:27;3.87;;;1.83;;
30472;SDS011;17263;48.160;11.452;2022-10-16T04:57:53;2.07;;;1.57;;
30472;SDS011;17263;48.160;11.452;2022-10-16T05:00:19;3.70;;;1.87;;
30472;SDS011;17263;48.160;11.452;2022-10-16T05:02:45;5.80;;;2.00;;
30472;SDS011;17263;48.160;11.452;2022-10-16T05:05:11;3.13;;;1.57;;
30472;SDS011;17263;48.160;11.452;2022-10-16T05:07:37;2.13;;;1.50;;
30472;SDS011;17263;48.160;11.452;2022-10-16T05:10:03;2.23;;;1.67;;
30472;SDS011;17263;48.160;11.452;2022-10-16T05:12:30;2.90;;;1.80;;
30472;SDS011;17263;48.160;11.452;2022-10-16T05:14:56;3.70;;;1.60;;
30472;SDS011;17263;48.160;11.452;2022-10-16T05:17:24;1.70;;;1.60;;
30472;SDS011;17263;48.160;11.452;2022-10-16T05:19:50;1.53;;;1.43;;
30472;SDS011;17263;48.160;11.452;2022-10-16T05:22:17;2.87;;;1.60;;
30472;SDS011;17263;48.160;11.452;2022-10-16T05:24:43;3.87;;;1.40;;
30472;SDS011;17263;48.160;11.452;2022-10-16T05:27:09;3.57;;;1.50;;
30472;SDS011;17263;48.160;11.452;2022-10-16T05:29:36;1.73;;;1.50;;
30472;SDS011;17263;48.160;11.452;2022-10-16T05:32:02;5.13;;;1.70;;
30472;SDS011;17263;48.160;11.452;2022-10-16T05:34:28;3.17;;;1.60;;
30472;SDS011;17263;48.160;11.452;2022-10-16T05:36:54;1.40;;;1.30;;
30472;SDS011;17263;48.160;11.452;2022-10-16T05:39:20;2.50;;;1.60;;
30472;SDS011;17263;48.160;11.452;2022-10-16T05:41:46;2.43;;;1.60;;
30472;SDS011;17263;48.160;11.452;2022-10-16T05:44:15;3.50;;;1.60;;
30472;SDS011;17263;48.160;11.452;2022-10-16T05:46:41;4.07;;;1.70;;
30472;SDS011;17263;48.160;11.452;2022-10-16T05:49:07;6.57;;;1.90;;
30472;SDS011;17263;48.160;11.452;2022-10-16T05:51:33;4.47;;;1.77;;
30472;SDS011;17263;48.160;11.452;2022-10-16T05:53:59;4.27;;;1.67;;
30472;SDS011;17263;48.160;11.452;2022-10-16T05:56:25;3.60;;;2.00;;
30472;SDS011;17263;48.160;11.452;2022-10-16T05:58:51;4.03;;;1.87;;
30472;SDS011;17263;48.160;11.452;2022-10-16T06:01:17;8.97;;;2.27;;
30472;SDS011;17263;48.160;11.452;2022-10-16T06:03:44;5.47;;;1.90;;
30472;SDS011;17263;48.160;11.452;2022-10-16T06:06:11;4.53;;;1.87;;
30472;SDS011;17263;48.160;11.452;2022-10-16T06:08:40;6.53;;;1.90;;
30472;SDS011;17263;48.160;11.452;2022-10-16T06:11:26;9.67;;;1.83;;
30472;SDS011;17263;48.160;11.452;2022-10-16T06:14:13;5.77;;;1.60;;
30472;SDS011;17263;48.160;11.452;2022-10-16T06:16:59;4.07;;;2.00;;
30472;SDS011;17263;48.160;11.452;2022-10-16T06:19:45;2.57;;;1.90;;
30472;SDS011;17263;48.160;11.452;2022-10-16T06:22:32;7.33;;;2.60;;
30472;SDS011;17263;48.160;11.452;2022-10-16T06:25:18;5.97;;;2.13;;
30472;SDS011;17263;48.160;11.452;2022-10-16T06:28:04;3.83;;;1.50;;
30472;SDS011;17263;48.160;11.452;2022-10-16T06:30:58;4.23;;;1.80;;
30472;SDS011;17263;48.160;11.452;2022-10-16T06:33:45;5.13;;;2.13;;
30472;SDS011;17263;48.160;11.452;2022-10-16T06:36:32;3.53;;;1.90;;
30472;SDS011;17263;48.160;11.452;2022-10-16T06:39:18;2.27;;;2.07;;
30472;SDS011;17263;48.160;11.452;2022-10-16T06:42:05;6.00;;;3.00;;
30472;SDS011;17263;48.160;11.452;2022-10-16T06:44:51;2.87;;;2.10;;
30472;SDS011;17263;48.160;11.452;2022-10-16T06:47:37;3.57;;;1.90;;
30472;SDS011;17263;48.160;11.452;2022-10-16T06:50:24;7.70;;;2.10;;
30472;SDS011;17263;48.160;11.452;2022-10-16T06:53:10;2.30;;;1.80;;
30472;SDS011;17263;48.160;11.452;2022-10-16T06:55:56;4.23;;;1.80;;
30472;SDS011;17263;48.160;11.452;2022-10-16T06:58:43;1.83;;;1.73;;
30472;SDS011;17263;48.160;11.452;2022-10-16T07:01:30;2.93;;;1.90;;
30472;SDS011;17263;48.160;11.452;2022-10-16T07:04:17;2.00;;;1.70;;
30472;SDS011;17263;48.160;11.452;2022-10-16T07:07:03;2.00;;;1.77;;
30472;SDS011;17263;48.160;11.452;2022-10-16T07:09:50;4.13;;;2.00;;
30472;SDS011;17263;48.160;11.452;2022-10-16T07:12:36;5.57;;;2.00;;
30472;SDS011;17263;48.160;11.452;2022-10-16T07:15:22;6.43;;;2.10;;
30472;SDS011;17263;48.160;11.452;2022-10-16T07:18:10;7.10;;;2.20;;
30472;SDS011;17263;48.160;11.452;2022-10-16T07:21:02;3.03;;;1.90;;
30472;SDS011;17263;48.160;11.452;2022-10-16T07:23:50;2.63;;;1.80;;
30472;SDS011;17263;48.160;11.452;2022-10-16T07:26:37;3.97;;;2.20;;
30472;SDS011;17263;48.160;11.452;2022-10-16T07:29:24;3.93;;;1.83;;
30472;SDS011;17263;48.160;11.452;2022-10-16T07:32:11;3.37;;;2.17;;
30472;SDS011;17263;48.160;11.452;2022-10-16T07:34:57;4.50;;;1.90;;
30472;SDS011;17263;48.160;11.452;2022-10-16T07:37:44;3.33;;;1.90;;
30472;SDS011;17263;48.160;11.452;2022-10-16T07:40:31;3.73;;;2.10;;
30472;SDS011;17263;48.160;11.452;2022-10-16T07:43:17;4.17;;;2.10;;
30472;SDS011;17263;48.160;11.452;2022-10-16T07:46:04;3.87;;;2.13;;
30472;SDS011;17263;48.160;11.452;2022-10-16T07:48:51;3.30;;;2.50;;
30472;SDS011;17263;48.160;11.452;2022-10-16T07:51:37;2.63;;;2.40;;
30472;SDS011;17263;48.160;11.452;2022-10-16T07:54:26;3.20;;;2.90;;
30472;SDS011;17263;48.160;11.452;2022-10-16T07:57:12;2.97;;;2.67;;
30472;SDS011;17263;48.160;11.452;2022-10-16T08:00:05;2.77;;;2.30;;
30472;SDS011;17263;48.160;11.452;2022-10-16T08:02:51;4.17;;;2.63;;
30472;SDS011;17263;48.160;11.452;2022-10-16T08:05:38;4.70;;;3.67;;
30472;SDS011;17263;48.160;11.452;2022-10-16T08:08:24;5.77;;;3.80;;
30472;SDS011;17263;48.160;11.452;2022-10-16T08:11:10;4.57;;;3.47;;
30472;SDS011;17263;48.160;11.452;2022-10-16T08:13:57;5.77;;;3.83;;
30472;SDS011;17263;48.160;11.452;2022-10-16T08:16:43;5.27;;;3.30;;
30472;SDS011;17263;48.160;11.452;2022-10-16T08:19:29;5.07;;;2.83;;
30472;SDS011;17263;48.160;11.452;2022-10-16T08:22:17;4.87;;;2.50;;
30472;SDS011;17263;48.160;11.452;2022-10-16T08:25:03;5.40;;;2.50;;
30472;SDS011;17263;48.160;11.452;2022-10-16T08:27:50;9.83;;;2.83;;
30472;SDS011;17263;48.160;11.452;2022-10-16T08:30:37;4.83;;;2.67;;
30472;SDS011;17263;48.160;11.452;2022-10-16T08:33:23;3.60;;;2.43;;
30472;SDS011;17263;48.160;11.452;2022-10-16T08:36:10;3.90;;;2.50;;
30472;SDS011;17263;48.160;11.452;2022-10-16T08:38:57;4.60;;;2.47;;
30472;SDS011;17263;48.160;11.452;2022-10-16T08:45:14;5.37;;;2.13;;
30472;SDS011;17263;48.160;11.452;2022-10-16T08:51:22;4.77;;;2.40;;
30472;SDS011;17263;48.160;11.452;2022-10-16T08:54:15;3.30;;;2.33;;
30472;SDS011;17263;48.160;11.452;2022-10-16T08:57:20;4.90;;;2.40;;
30472;SDS011;17263;48.160;11.452;2022-10-16T09:00:16;4.37;;;2.77;;
30472;SDS011;17263;48.160;11.452;2022-10-16T09:12:00;3.17;;;2.27;;
30472;SDS011;17263;48.160;11.452;2022-10-16T09:14:50;5.63;;;2.50;;
30472;SDS011;17263;48.160;11.452;2022-10-16T09:17:43;6.50;;;3.00;;
30472;SDS011;17263;48.160;11.452;2022-10-16T09:20:59;4.13;;;2.30;;
30472;SDS011;17263;48.160;11.452;2022-10-16T09:23:59;8.13;;;2.30;;
30472;SDS011;17263;48.160;11.452;2022-10-16T09:26:59;4.23;;;2.30;;
30472;SDS011;17263;48.160;11.452;2022-10-16T09:29:45;6.70;;;2.80;;
30472;SDS011;17263;48.160;11.452;2022-10-16T09:32:31;6.10;;;2.67;;
30472;SDS011;17263;48.160;11.452;2022-10-16T09:35:20;2.67;;;2.20;;
30472;SDS011;17263;48.160;11.452;2022-10-16T09:41:16;4.80;;;2.20;;
30472;SDS011;17263;48.160;11.452;2022-10-16T09:47:15;3.53;;;2.20;;
30472;SDS011;17263;48.160;11.452;2022-10-16T09:50:05;3.27;;;2.13;;
30472;SDS011;17263;48.160;11.452;2022-10-16T09:53:11;1.90;;;1.80;;
30472;SDS011;17263;48.160;11.452;2022-10-16T09:55:58;3.73;;;2.00;;
30472;SDS011;17263;48.160;11.452;2022-10-16T09:58:49;4.03;;;2.00;;
30472;SDS011;17263;48.160;11.452;2022-10-16T10:01:44;6.77;;;2.50;;
30472;SDS011;17263;48.160;11.452;2022-10-16T10:04:41;5.07;;;2.03;;
30472;SDS011;17263;48.160;11.452;2022-10-16T10:07:31;7.03;;;2.23;;
30472;SDS011;17263;48.160;11.452;2022-10-16T10:10:26;4.53;;;2.37;;
30472;SDS011;17263;48.160;11.452;2022-10-16T10:13:24;9.73;;;2.47;;
30472;SDS011;17263;48.160;11.452;2022-10-16T10:16:12;1.80;;;1.70;;
30472;SDS011;17263;48.160;11.452;2022-10-16T10:19:22;2.93;;;2.27;;
30472;SDS011;17263;48.160;11.452;2022-10-16T10:25:37;1.87;;;1.70;;
30472;SDS011;17263;48.160;11.452;2022-10-16T10:29:36;2.83;;;2.07;;
30472;SDS011;17263;48.160;11.452;2022-10-16T10:32:47;3.70;;;1.90;;
30472;SDS011;17263;48.160;11.452;2022-10-16T10:42:06;2.27;;;1.60;;
30472;SDS011;17263;48.160;11.452;2022-10-16T10:48:06;4.20;;;1.90;;
30472;SDS011;17263;48.160;11.452;2022-10-16T10:51:09;4.40;;;1.47;;
30472;SDS011;17263;48.160;11.452;2022-10-16T10:54:14;3.77;;;1.60;;
30472;SDS011;17263;48.160;11.452;2022-10-16T10:57:21;5.23;;;1.63;;
30472;SDS011;17263;48.160;11.452;2022-10-16T11:01:15;3.20;;;1.40;;
30472;SDS011;17263;48.160;11.452;2022-10-16T11:06:55;2.33;;;1.70;;
30472;SDS011;17263;48.160;11.452;2022-10-16T11:09:51;4.40;;;1.50;;
30472;SDS011;17263;48.160;11.452;2022-10-16T11:12:45;2.00;;;1.40;;
30472;SDS011;17263;48.160;11.452;2022-10-16T11:15:39;2.20;;;1.73;;
30472;SDS011;17263;48.160;11.452;2022-10-16T11:18:32;4.83;;;1.70;;
30472;SDS011;17263;48.160;11.452;2022-10-16T11:21:36;4.83;;;1.70;;
30472;SDS011;17263;48.160;11.452;2022-10-16T11:24:59;1.73;;;1.60;;
30472;SDS011;17263;48.160;11.452;2022-10-16T11:33:52;2.50;;;1.67;;
30472;SDS011;17263;48.160;11.452;2022-10-16T11:36:58;1.60;;;1.50;;
30472;SDS011;17263;48.160;11.452;2022-10-16T11:40:19;4.43;;;1.50;;
30472;SDS011;17263;48.160;11.452;2022-10-16T11:43:28;1.90;;;1.80;;
30472;SDS011;17263;48.160;11.452;2022-10-16T11:46:21;3.47;;;1.60;;
30472;SDS011;17263;48.160;11.452;2022-10-16T11:49:12;1.90;;;1.80;;
30472;SDS011;17263;48.160;11.452;2022-10-16T11:55:15;4.80;;;1.60;;
30472;SDS011;17263;48.160;11.452;2022-10-16T11:58:06;2.13;;;1.70;;
30472;SDS011;17263;48.160;11.452;2022-10-16T12:01:27;6.77;;;1.50;;
30472;SDS011;17263;48.160;11.452;2022-10-16T12:04:28;2.80;;;1.60;;
30472;SDS011;17263;48.160;11.452;2022-10-16T12:07:32;3.80;;;1.20;;
30472;SDS011;17263;48.160;11.452;2022-10-16T12:10:26;1.97;;;1.30;;
30472;SDS011;17263;48.160;11.452;2022-10-16T12:16:21;3.23;;;1.17;;
30472;SDS011;17263;48.160;11.452;2022-10-16T12:19:13;1.63;;;1.40;;
30472;SDS011;17263;48.160;11.452;2022-10-16T12:22:02;1.27;;;1.17;;
30472;SDS011;17263;48.160;11.452;2022-10-16T12:24:50;1.23;;;1.13;;
30472;SDS011;17263;48.160;11.452;2022-10-16T12:27:37;2.23;;;1.00;;
30472;SDS011;17263;48.160;11.452;2022-10-16T12:30:25;1.87;;;0.90;;
30472;SDS011;17263;48.160;11.452;2022-10-16T12:33:27;2.30;;;1.17;;
30472;SDS011;17263;48.160;11.452;2022-10-16T12:36:16;3.07;;;1.10;;
30472;SDS011;17263;48.160;11.452;2022-10-16T12:39:24;2.33;;;1.40;;
30472;SDS011;17263;48.160;11.452;2022-10-16T12:45:26;3.00;;;1.50;;
30472;SDS011;17263;48.160;11.452;2022-10-16T12:48:18;2.47;;;1.23;;
30472;SDS011;17263;48.160;11.452;2022-10-16T12:51:11;2.13;;;1.10;;
30472;SDS011;17263;48.160;11.452;2022-10-16T12:57:33;1.00;;;0.90;;
30472;SDS011;17263;48.160;11.452;2022-10-16T13:03:31;1.77;;;1.13;;
30472;SDS011;17263;48.160;11.452;2022-10-16T13:06:38;3.00;;;1.00;;
30472;SDS011;17263;48.160;11.452;2022-10-16T13:28:30;1.60;;;0.90;;
30472;SDS011;17263;48.160;11.452;2022-10-16T13:31:20;0.93;;;0.90;;
30472;SDS011;17263;48.160;11.452;2022-10-16T13:34:19;1.17;;;0.90;;
30472;SDS011;17263;48.160;11.452;2022-10-16T13:37:15;1.10;;;1.00;;
30472;SDS011;17263;48.160;11.452;2022-10-16T13:40:25;0.80;;;0.80;;
30472;SDS011;17263;48.160;11.452;2022-10-16T13:43:10;1.73;;;1.10;;
30472;SDS011;17263;48.160;11.452;2022-10-16T13:46:01;2.40;;;0.80;;
30472;SDS011;17263;48.160;11.452;2022-10-16T13:48:56;3.20;;;1.00;;
30472;SDS011;17263;48.160;11.452;2022-10-16T13:51:54;2.00;;;1.07;;
30472;SDS011;17263;48.160;11.452;2022-10-16T13:54:42;2.20;;;1.00;;
30472;SDS011;17263;48.160;11.452;2022-10-16T13:57:28;0.93;;;0.83;;
30472;SDS011;17263;48.160;11.452;2022-10-16T14:00:22;2.77;;;1.23;;
30472;SDS011;17263;48.160;11.452;2022-10-16T14:03:13;0.77;;;0.77;;
30472;SDS011;17263;48.160;11.452;2022-10-16T14:06:02;1.90;;;1.00;;
30472;SDS011;17263;48.160;11.452;2022-10-16T14:08:59;2.17;;;0.90;;
30472;SDS011;17263;48.160;11.452;2022-10-16T14:11:48;2.30;;;1.13;;
30472;SDS011;17263;48.160;11.452;2022-10-16T14:14:41;1.07;;;0.97;;
30472;SDS011;17263;48.160;11.452;2022-10-16T14:17:33;1.27;;;1.10;;
30472;SDS011;17263;48.160;11.452;2022-10-16T14:20:23;1.23;;;1.13;;
30472;SDS011;17263;48.160;11.452;2022-10-16T14:23:23;3.73;;;1.10;;
30472;SDS011;17263;48.160;11.452;2022-10-16T14:26:24;1.80;;;1.40;;
30472;SDS011;17263;48.160;11.452;2022-10-16T14:31:39;2.47;;;1.10;;
30472;SDS011;17263;48.160;11.452;2022-10-16T14:34:25;1.77;;;1.10;;
30472;SDS011;17263;48.160;11.452;2022-10-16T14:39:49;2.27;;;1.20;;
30472;SDS011;17263;48.160;11.452;2022-10-16T14:42:16;1.30;;;1.20;;
30472;SDS011;17263;48.160;11.452;2022-10-16T14:44:44;2.17;;;1.40;;
30472;SDS011;17263;48.160;11.452;2022-10-16T14:47:13;1.47;;;1.13;;
30472;SDS011;17263;48.160;11.452;2022-10-16T14:49:42;1.10;;;1.00;;
30472;SDS011;17263;48.160;11.452;2022-10-16T14:52:09;1.57;;;1.10;;
30472;SDS011;17263;48.160;11.452;2022-10-16T14:54:37;0.87;;;0.87;;
30472;SDS011;17263;48.160;11.452;2022-10-16T14:57:03;1.20;;;1.10;;
30472;SDS011;17263;48.160;11.452;2022-10-16T14:59:40;2.10;;;1.90;;
30472;SDS011;17263;48.160;11.452;2022-10-16T15:02:17;1.97;;;1.80;;
30472;SDS011;17263;48.160;11.452;2022-10-16T15:04:59;1.80;;;1.70;;
30472;SDS011;17263;48.160;11.452;2022-10-16T15:07:37;1.50;;;1.40;;
30472;SDS011;17263;48.160;11.452;2022-10-16T15:10:03;4.73;;;1.30;;
30472;SDS011;17263;48.160;11.452;2022-10-16T15:12:29;1.30;;;1.20;;
30472;SDS011;17263;48.160;11.452;2022-10-16T15:14:55;1.60;;;1.37;;
30472;SDS011;17263;48.160;11.452;2022-10-16T15:17:21;1.53;;;1.30;;
30472;SDS011;17263;48.160;11.452;2022-10-16T15:19:47;1.63;;;1.33;;
30472;SDS011;17263;48.160;11.452;2022-10-16T15:22:13;2.17;;;1.70;;
30472;SDS011;17263;48.160;11.452;2022-10-16T15:24:39;1.30;;;1.17;;
30472;SDS011;17263;48.160;11.452;2022-10-16T15:27:05;1.33;;;1.10;;
30472;SDS011;17263;48.160;11.452;2022-10-16T15:29:31;1.10;;;1.00;;
30472;SDS011;17263;48.160;11.452;2022-10-16T15:31:57;2.10;;;1.40;;
30472;SDS011;17263;48.160;11.452;2022-10-16T15:34:23;3.50;;;1.90;;
30472;SDS011;17263;48.160;11.452;2022-10-16T15:36:49;4.03;;;1.60;;
30472;SDS011;17263;48.160;11.452;2022-10-16T15:39:16;5.83;;;1.30;;
30472;SDS011;17263;48.160;11.452;2022-10-16T15:41:44;2.30;;;1.50;;
30472;SDS011;17263;48.160;11.452;2022-10-16T15:44:19;3.47;;;1.30;;
30472;SDS011;17263;48.160;11.452;2022-10-16T15:46:48;2.00;;;1.80;;
30472;SDS011;17263;48.160;11.452;2022-10-16T15:49:14;3.17;;;1.63;;
30472;SDS011;17263;48.160;11.452;2022-10-16T15:51:40;1.90;;;1.63;;
30472;SDS011;17263;48.160;11.452;2022-10-16T15:54:07;2.40;;;2.10;;
30472;SDS011;17263;48.160;11.452;2022-10-16T15:56:34;2.27;;;1.70;;
30472;SDS011;17263;48.160;11.452;2022-10-16T15:59:02;1.60;;;1.50;;
30472;SDS011;17263;48.160;11.452;2022-10-16T16:01:31;2.43;;;1.77;;
30472;SDS011;17263;48.160;11.452;2022-10-16T16:03:59;2.93;;;2.20;;
30472;SDS011;17263;48.160;11.452;2022-10-16T16:06:25;2.80;;;2.07;;
30472;SDS011;17263;48.160;11.452;2022-10-16T16:08:51;3.27;;;2.53;;
30472;SDS011;17263;48.160;11.452;2022-10-16T16:11:17;2.80;;;2.20;;
30472;SDS011;17263;48.160;11.452;2022-10-16T16:13:44;4.90;;;2.00;;
30472;SDS011;17263;48.160;11.452;2022-10-16T16:16:11;2.03;;;1.83;;
30472;SDS011;17263;48.160;11.452;2022-10-16T16:18:40;3.03;;;2.10;;
30472;SDS011;17263;48.160;11.452;2022-10-16T16:21:06;1.90;;;1.70;;
30472;SDS011;17263;48.160;11.452;2022-10-16T16:23:33;2.80;;;2.17;;
30472;SDS011;17263;48.160;11.452;2022-10-16T16:26:41;3.80;;;1.80;;
30472;SDS011;17263;48.160;11.452;2022-10-16T16:28:53;3.50;;;1.73;;
30472;SDS011;17263;48.160;11.452;2022-10-16T16:31:23;2.53;;;1.60;;
30472;SDS011;17263;48.160;11.452;2022-10-16T16:33:50;2.77;;;1.90;;
30472;SDS011;17263;48.160;11.452;2022-10-16T16:36:16;2.10;;;1.87;;
30472;SDS011;17263;48.160;11.452;2022-10-16T16:38:46;4.37;;;2.20;;
30472;SDS011;17263;48.160;11.452;2022-10-16T16:41:19;3.23;;;2.43;;
30472;SDS011;17263;48.160;11.452;2022-10-16T16:43:47;4.43;;;2.10;;
30472;SDS011;17263;48.160;11.452;2022-10-16T16:46:14;3.47;;;2.20;;
30472;SDS011;17263;48.160;11.452;2022-10-16T16:48:40;4.03;;;2.33;;
30472;SDS011;17263;48.160;11.452;2022-10-16T16:51:08;7.03;;;2.60;;
30472;SDS011;17263;48.160;11.452;2022-10-16T16:53:40;3.23;;;2.73;;
30472;SDS011;17263;48.160;11.452;2022-10-16T16:56:08;3.67;;;2.70;;
30472;SDS011;17263;48.160;11.452;2022-10-16T16:58:34;3.67;;;2.93;;
30472;SDS011;17263;48.160;11.452;2022-10-16T17:01:00;4.53;;;3.13;;
30472;SDS011;17263;48.160;11.452;2022-10-16T17:03:28;3.93;;;3.27;;
30472;SDS011;17263;48.160;11.452;2022-10-16T17:05:55;3.73;;;3.07;;
30472;SDS011;17263;48.160;11.452;2022-10-16T17:08:26;4.20;;;3.13;;
30472;SDS011;17263;48.160;11.452;2022-10-16T17:10:53;4.37;;;3.30;;
30472;SDS011;17263;48.160;11.452;2022-10-16T17:13:21;5.03;;;3.17;;